JNL101 BIRK-LIRN
Flight info
| Callsign | JNL101 |
|---|---|
| Flight time | N/A |
| Altitude | 37000 |
| Route | M072F370 DCT EL DCT TOPPA/N0397F370 DCT VELED/N0400F390 DCT LIRSU DCT KRH DCT UTABA M738 NATAG DCT BORMI DCT LUMAV DCT GAVRA DCT ALAXI DCT TEA DCT |
| Aircraft | E35L/M-SABDFGRW/S |
Departure
| Time | 2026-04-23 10:39 |
|---|---|
| Airport | Reykjavík Domestic Airport (BIRK) |
Arrival
| Time | N/A |
|---|---|
| Airport | Naples International Airport (LIRN) |
| Time | Latitude | Longitude | Altitude | Speed | Heading |
|---|---|---|---|---|---|
| 2026-04-23 10:09 | 64.13022 | -21.93439 | 28 ft | 0 kts | 355° |
| 2026-04-23 10:34 | 64.13023 | -21.93439 | 28 ft | 0 kts | 355° |
| 2026-04-23 10:34 | 64.13026 | -21.93440 | 28 ft | 0 kts | 355° |
| 2026-04-23 10:34 | 64.13036 | -21.93444 | 28 ft | 1 kts | 343° |
| 2026-04-23 10:35 | 64.13049 | -21.93488 | 28 ft | 5 kts | 296° |
| 2026-04-23 10:35 | 64.13052 | -21.93551 | 27 ft | 4 kts | 220° |
| 2026-04-23 10:35 | 64.12999 | -21.93565 | 24 ft | 11 kts | 182° |
| 2026-04-23 10:35 | 64.12920 | -21.93528 | 22 ft | 13 kts | 147° |
| 2026-04-23 10:36 | 64.12812 | -21.93489 | 18 ft | 18 kts | 176° |
| 2026-04-23 10:36 | 64.12660 | -21.93463 | 13 ft | 24 kts | 176° |
| 2026-04-23 10:36 | 64.12477 | -21.93424 | 7 ft | 29 kts | 173° |
| 2026-04-23 10:36 | 64.12275 | -21.93391 | 3 ft | 17 kts | 178° |
| 2026-04-23 10:37 | 64.12181 | -21.93426 | 0 ft | 7 kts | 206° |
| 2026-04-23 10:37 | 64.12130 | -21.93511 | -1 ft | 8 kts | 225° |
| 2026-04-23 10:37 | 64.12135 | -21.93602 | -1 ft | 7 kts | 329° |
| 2026-04-23 10:37 | 64.12147 | -21.93610 | -1 ft | 0 kts | 353° |
| 2026-04-23 10:38 | 64.12160 | -21.93613 | -1 ft | 0 kts | 354° |
| 2026-04-23 10:38 | 64.12166 | -21.93614 | -1 ft | 13 kts | 354° |
| 2026-04-23 10:39 | 64.12581 | -21.93698 | 5 ft | 102 kts | 355° |
| 2026-04-23 10:39 | 64.13510 | -21.93893 | 124 ft | 155 kts | 353° |
| 2026-04-23 10:39 | 64.14643 | -21.94196 | 754 ft | 178 kts | 352° |
| 2026-04-23 10:39 | 64.15879 | -21.94562 | 1667 ft | 188 kts | 352° |
| 2026-04-23 10:40 | 64.17160 | -21.94866 | 2618 ft | 189 kts | 2° |
| 2026-04-23 10:40 | 64.18340 | -21.93707 | 3404 ft | 197 kts | 42° |
| 2026-04-23 10:40 | 64.19051 | -21.90692 | 3496 ft | 244 kts | 81° |
| 2026-04-23 10:40 | 64.18777 | -21.86843 | 4360 ft | 257 kts | 118° |
| 2026-04-23 10:41 | 64.17723 | -21.83723 | 5562 ft | 256 kts | 138° |
| 2026-04-23 10:41 | 64.16269 | -21.81468 | 6603 ft | 260 kts | 147° |
| 2026-04-23 10:41 | 64.14756 | -21.79267 | 7610 ft | 265 kts | 147° |
| 2026-04-23 10:41 | 64.13199 | -21.77006 | 8587 ft | 271 kts | 146° |
| 2026-04-23 10:42 | 64.11603 | -21.74693 | 9463 ft | 280 kts | 146° |
| 2026-04-23 10:42 | 64.09946 | -21.72293 | 10307 ft | 289 kts | 146° |
| 2026-04-23 10:42 | 64.08250 | -21.69844 | 11169 ft | 296 kts | 146° |
| 2026-04-23 10:42 | 64.06555 | -21.67157 | 12012 ft | 302 kts | 134° |
| 2026-04-23 10:43 | 64.05335 | -21.63261 | 12826 ft | 306 kts | 116° |
| 2026-04-23 10:43 | 64.04321 | -21.58956 | 13635 ft | 313 kts | 116° |
| 2026-04-23 10:43 | 64.03294 | -21.54540 | 14427 ft | 321 kts | 115° |
| 2026-04-23 10:43 | 64.02253 | -21.50055 | 15318 ft | 324 kts | 115° |
| 2026-04-23 10:44 | 64.01210 | -21.45569 | 16173 ft | 327 kts | 114° |
| 2026-04-23 10:44 | 64.00140 | -21.40972 | 17018 ft | 331 kts | 114° |
| 2026-04-23 10:44 | 63.99073 | -21.36398 | 17853 ft | 334 kts | 113° |
| 2026-04-23 10:44 | 63.97980 | -21.31727 | 18659 ft | 338 kts | 114° |
| 2026-04-23 10:45 | 63.96869 | -21.26984 | 19464 ft | 341 kts | 114° |
| 2026-04-23 10:45 | 63.95761 | -21.22269 | 20308 ft | 341 kts | 114° |
| 2026-04-23 10:45 | 63.94647 | -21.17532 | 21103 ft | 343 kts | 114° |
| 2026-04-23 10:45 | 63.93532 | -21.12807 | 21844 ft | 347 kts | 113° |
| 2026-04-23 10:46 | 63.92382 | -21.07940 | 22608 ft | 349 kts | 113° |
| 2026-04-23 10:46 | 63.91246 | -21.03147 | 23315 ft | 351 kts | 113° |
| 2026-04-23 10:46 | 63.90086 | -20.98262 | 24081 ft | 353 kts | 113° |
| 2026-04-23 10:46 | 63.88932 | -20.93413 | 24786 ft | 355 kts | 112° |
| 2026-04-23 10:47 | 63.87754 | -20.88479 | 25455 ft | 358 kts | 112° |
| 2026-04-23 10:47 | 63.86563 | -20.83494 | 26076 ft | 362 kts | 113° |
| 2026-04-23 10:47 | 63.85377 | -20.78551 | 26879 ft | 361 kts | 112° |
| 2026-04-23 10:47 | 63.84184 | -20.73584 | 27685 ft | 359 kts | 112° |
| 2026-04-23 10:48 | 63.83009 | -20.68702 | 28529 ft | 355 kts | 112° |
| 2026-04-23 10:48 | 63.81833 | -20.63828 | 29284 ft | 354 kts | 112° |
| 2026-04-23 10:48 | 63.80675 | -20.59037 | 30037 ft | 351 kts | 112° |
| 2026-04-23 10:48 | 63.79483 | -20.54117 | 30767 ft | 350 kts | 112° |
| 2026-04-23 10:49 | 63.78315 | -20.49305 | 31367 ft | 349 kts | 112° |
| 2026-04-23 10:49 | 63.77126 | -20.44418 | 31852 ft | 351 kts | 113° |
| 2026-04-23 10:49 | 63.75939 | -20.39552 | 32290 ft | 353 kts | 113° |
| 2026-04-23 10:49 | 63.74768 | -20.34762 | 32723 ft | 352 kts | 114° |
| 2026-04-23 10:50 | 63.73631 | -20.30121 | 33076 ft | 354 kts | 115° |
| 2026-04-23 10:50 | 63.72429 | -20.25227 | 33478 ft | 356 kts | 115° |
| 2026-04-23 10:50 | 63.71237 | -20.20382 | 33914 ft | 356 kts | 115° |
| 2026-04-23 10:50 | 63.70045 | -20.15549 | 34334 ft | 357 kts | 115° |
| 2026-04-23 10:51 | 63.68852 | -20.10722 | 34768 ft | 358 kts | 116° |
| 2026-04-23 10:51 | 63.67639 | -20.05826 | 35264 ft | 356 kts | 116° |
| 2026-04-23 10:51 | 63.66440 | -20.00997 | 35672 ft | 357 kts | 116° |
| 2026-04-23 10:51 | 63.65229 | -19.96132 | 36081 ft | 358 kts | 116° |
| 2026-04-23 10:52 | 63.64006 | -19.91224 | 36478 ft | 358 kts | 117° |
| 2026-04-23 10:52 | 63.62796 | -19.86385 | 36833 ft | 359 kts | 117° |
| 2026-04-23 10:52 | 63.61570 | -19.81491 | 37214 ft | 359 kts | 117° |
| 2026-04-23 10:52 | 63.60337 | -19.76577 | 37551 ft | 360 kts | 117° |
| 2026-04-23 10:53 | 63.59122 | -19.71748 | 37898 ft | 360 kts | 118° |
| 2026-04-23 10:53 | 63.57885 | -19.66842 | 38195 ft | 361 kts | 118° |
| 2026-04-23 10:53 | 63.56643 | -19.61926 | 38428 ft | 365 kts | 118° |
| 2026-04-23 10:53 | 63.55399 | -19.57016 | 38690 ft | 367 kts | 118° |
| 2026-04-23 10:54 | 63.54130 | -19.52017 | 38947 ft | 370 kts | 118° |
| 2026-04-23 10:54 | 63.52867 | -19.47052 | 39212 ft | 372 kts | 118° |
| 2026-04-23 10:54 | 63.51571 | -19.41968 | 39380 ft | 378 kts | 118° |
| 2026-04-23 10:54 | 63.50269 | -19.36871 | 39366 ft | 387 kts | 118° |
| 2026-04-23 10:55 | 63.47528 | -19.26187 | 39371 ft | 402 kts | 119° |
| 2026-04-23 10:55 | 63.44731 | -19.15335 | 39374 ft | 412 kts | 119° |
| 2026-04-23 10:56 | 63.41805 | -19.04038 | 39349 ft | 426 kts | 119° |
| 2026-04-23 10:56 | 63.38788 | -18.92448 | 39355 ft | 436 kts | 119° |
| 2026-04-23 10:57 | 63.35761 | -18.80885 | 39383 ft | 435 kts | 119° |
| 2026-04-23 10:57 | 63.32714 | -18.69303 | 39377 ft | 432 kts | 119° |
| 2026-04-23 10:58 | 63.29705 | -18.57924 | 39381 ft | 430 kts | 119° |
| 2026-04-23 10:58 | 63.26680 | -18.46541 | 39392 ft | 428 kts | 120° |
| 2026-04-23 10:59 | 63.23672 | -18.35281 | 39393 ft | 425 kts | 120° |
| 2026-04-23 10:59 | 63.20652 | -18.24033 | 39406 ft | 423 kts | 120° |
| 2026-04-23 11:00 | 63.17665 | -18.12965 | 39412 ft | 422 kts | 120° |
| 2026-04-23 11:00 | 63.14669 | -18.01915 | 39420 ft | 420 kts | 120° |
| 2026-04-23 11:01 | 63.11673 | -17.90922 | 39418 ft | 419 kts | 120° |
| 2026-04-23 11:01 | 63.08666 | -17.79937 | 39411 ft | 417 kts | 120° |
| 2026-04-23 11:02 | 63.05647 | -17.68968 | 39411 ft | 416 kts | 121° |
| 2026-04-23 11:02 | 63.02636 | -17.58081 | 39408 ft | 415 kts | 121° |
| 2026-04-23 11:03 | 62.99627 | -17.47250 | 39412 ft | 414 kts | 121° |
| 2026-04-23 11:03 | 62.96617 | -17.36472 | 39415 ft | 412 kts | 121° |
| 2026-04-23 11:04 | 62.93621 | -17.25790 | 39415 ft | 411 kts | 121° |
| 2026-04-23 11:04 | 62.90615 | -17.15124 | 39412 ft | 411 kts | 122° |
| 2026-04-23 11:05 | 62.87621 | -17.04554 | 39401 ft | 410 kts | 122° |
| 2026-04-23 11:05 | 62.84616 | -16.93993 | 39411 ft | 410 kts | 121° |
| 2026-04-23 11:06 | 62.80116 | -16.78267 | 39418 ft | 409 kts | 122° |
| 2026-04-23 11:07 | 62.77092 | -16.67760 | 39425 ft | 408 kts | 122° |
| 2026-04-23 11:07 | 62.74070 | -16.57312 | 39432 ft | 407 kts | 122° |
| 2026-04-23 11:08 | 62.71024 | -16.46827 | 39427 ft | 407 kts | 122° |
| 2026-04-23 11:08 | 62.67965 | -16.36344 | 39431 ft | 407 kts | 122° |
| 2026-04-23 11:09 | 62.64929 | -16.25992 | 39436 ft | 406 kts | 123° |
| 2026-04-23 11:09 | 62.61900 | -16.15706 | 39437 ft | 406 kts | 123° |
| 2026-04-23 11:10 | 62.58852 | -16.05405 | 39440 ft | 406 kts | 123° |
| 2026-04-23 11:10 | 62.55808 | -15.95166 | 39430 ft | 406 kts | 123° |
| 2026-04-23 11:11 | 62.52751 | -15.84925 | 39431 ft | 405 kts | 123° |
| 2026-04-23 11:11 | 62.49673 | -15.74662 | 39433 ft | 405 kts | 123° |
| 2026-04-23 11:12 | 62.46610 | -15.64494 | 39436 ft | 405 kts | 123° |
| 2026-04-23 11:12 | 62.43541 | -15.54355 | 39434 ft | 404 kts | 123° |
| 2026-04-23 11:13 | 62.40454 | -15.44199 | 39435 ft | 404 kts | 123° |
| 2026-04-23 11:13 | 62.37360 | -15.34067 | 39437 ft | 404 kts | 124° |
| 2026-04-23 11:14 | 62.34272 | -15.23997 | 39442 ft | 403 kts | 124° |
| 2026-04-23 11:14 | 62.31188 | -15.13983 | 39442 ft | 403 kts | 124° |
| 2026-04-23 11:15 | 62.28105 | -15.04017 | 39455 ft | 403 kts | 124° |
| 2026-04-23 11:15 | 62.25003 | -14.94034 | 39455 ft | 403 kts | 124° |
| 2026-04-23 11:16 | 62.21888 | -14.84056 | 39455 ft | 403 kts | 124° |
| 2026-04-23 11:16 | 62.18763 | -14.74084 | 39459 ft | 402 kts | 124° |
| 2026-04-23 11:17 | 62.15637 | -14.64156 | 39459 ft | 402 kts | 124° |
| 2026-04-23 11:17 | 62.12520 | -14.54297 | 39460 ft | 403 kts | 124° |
| 2026-04-23 11:18 | 62.09359 | -14.44344 | 39456 ft | 403 kts | 124° |
| 2026-04-23 11:18 | 62.06202 | -14.34444 | 39454 ft | 403 kts | 125° |
| 2026-04-23 11:19 | 62.03056 | -14.24621 | 39461 ft | 404 kts | 125° |
| 2026-04-23 11:19 | 61.99903 | -14.14823 | 39467 ft | 407 kts | 126° |
| 2026-04-23 11:20 | 61.96671 | -14.04817 | 39469 ft | 416 kts | 126° |
| 2026-04-23 11:20 | 61.93363 | -13.94624 | 39465 ft | 422 kts | 126° |
| 2026-04-23 11:21 | 61.90036 | -13.84415 | 39464 ft | 423 kts | 126° |
| 2026-04-23 11:21 | 61.86707 | -13.74249 | 39473 ft | 423 kts | 126° |
| 2026-04-23 11:22 | 61.83362 | -13.64077 | 39484 ft | 424 kts | 126° |
| 2026-04-23 11:22 | 61.79989 | -13.53866 | 39489 ft | 424 kts | 126° |
| 2026-04-23 11:23 | 61.76623 | -13.43719 | 39485 ft | 425 kts | 126° |
| 2026-04-23 11:23 | 61.73238 | -13.33563 | 39485 ft | 426 kts | 127° |
| 2026-04-23 11:24 | 61.69826 | -13.23368 | 39474 ft | 427 kts | 127° |
| 2026-04-23 11:24 | 61.66430 | -13.13267 | 39469 ft | 427 kts | 127° |
| 2026-04-23 11:25 | 61.62991 | -13.03083 | 39470 ft | 428 kts | 127° |
| 2026-04-23 11:25 | 61.59561 | -12.92970 | 39469 ft | 429 kts | 127° |
| 2026-04-23 11:26 | 61.56112 | -12.82845 | 39470 ft | 429 kts | 127° |
| 2026-04-23 11:26 | 61.52625 | -12.72655 | 39467 ft | 430 kts | 127° |
| 2026-04-23 11:27 | 61.49166 | -12.62590 | 39466 ft | 430 kts | 127° |
| 2026-04-23 11:27 | 61.45666 | -12.52453 | 39473 ft | 430 kts | 127° |
| 2026-04-23 11:28 | 61.42168 | -12.42362 | 39477 ft | 431 kts | 127° |
| 2026-04-23 11:28 | 61.38654 | -12.32274 | 39476 ft | 431 kts | 128° |
| 2026-04-23 11:29 | 61.35149 | -12.22250 | 39483 ft | 432 kts | 128° |
| 2026-04-23 11:29 | 61.31619 | -12.12203 | 39477 ft | 432 kts | 128° |
| 2026-04-23 11:30 | 61.28077 | -12.02161 | 39486 ft | 432 kts | 128° |
| 2026-04-23 11:30 | 61.24514 | -11.92108 | 39482 ft | 433 kts | 128° |
| 2026-04-23 11:31 | 61.20967 | -11.82142 | 39481 ft | 433 kts | 128° |
| 2026-04-23 11:31 | 61.17401 | -11.72164 | 39483 ft | 433 kts | 128° |
| 2026-04-23 11:32 | 61.13832 | -11.62222 | 39482 ft | 433 kts | 128° |
| 2026-04-23 11:32 | 61.10246 | -11.52277 | 39481 ft | 433 kts | 128° |
| 2026-04-23 11:33 | 61.06643 | -11.42326 | 39481 ft | 433 kts | 128° |
| 2026-04-23 11:33 | 61.03054 | -11.32455 | 39480 ft | 433 kts | 129° |
| 2026-04-23 11:34 | 60.99460 | -11.22615 | 39486 ft | 433 kts | 129° |
| 2026-04-23 11:34 | 60.95832 | -11.12723 | 39476 ft | 433 kts | 129° |
| 2026-04-23 11:35 | 60.92235 | -11.02956 | 39494 ft | 434 kts | 129° |
| 2026-04-23 11:35 | 60.88593 | -10.93109 | 39476 ft | 434 kts | 129° |
| 2026-04-23 11:36 | 60.84950 | -10.83304 | 39485 ft | 434 kts | 129° |
| 2026-04-23 11:36 | 60.81284 | -10.73476 | 39484 ft | 435 kts | 129° |
| 2026-04-23 11:37 | 60.77620 | -10.63695 | 39483 ft | 436 kts | 129° |
| 2026-04-23 11:37 | 60.73927 | -10.53879 | 39482 ft | 437 kts | 129° |
| 2026-04-23 11:38 | 60.70232 | -10.44097 | 39486 ft | 438 kts | 129° |
| 2026-04-23 11:38 | 60.66530 | -10.34342 | 39481 ft | 438 kts | 130° |
| 2026-04-23 11:39 | 60.62796 | -10.24542 | 39476 ft | 439 kts | 130° |
| 2026-04-23 11:39 | 60.59083 | -10.14837 | 39483 ft | 439 kts | 130° |
| 2026-04-23 11:40 | 60.55335 | -10.05083 | 39483 ft | 440 kts | 130° |
| 2026-04-23 11:40 | 60.51582 | -9.95355 | 39491 ft | 440 kts | 130° |
| 2026-04-23 11:41 | 60.47822 | -9.85653 | 39498 ft | 441 kts | 130° |
| 2026-04-23 11:41 | 60.44033 | -9.75915 | 39494 ft | 441 kts | 130° |
| 2026-04-23 11:42 | 60.40254 | -9.66245 | 39489 ft | 442 kts | 130° |
| 2026-04-23 11:42 | 60.36456 | -9.56563 | 39496 ft | 442 kts | 130° |
| 2026-04-23 11:43 | 60.32648 | -9.46902 | 39490 ft | 442 kts | 130° |
| 2026-04-23 11:43 | 60.28812 | -9.37205 | 39493 ft | 443 kts | 130° |
| 2026-04-23 11:44 | 60.24987 | -9.27579 | 39492 ft | 443 kts | 131° |
| 2026-04-23 11:44 | 60.21121 | -9.17890 | 39481 ft | 444 kts | 131° |
| 2026-04-23 11:45 | 60.17275 | -9.08290 | 39468 ft | 445 kts | 131° |
| 2026-04-23 11:45 | 60.13411 | -8.98685 | 39473 ft | 445 kts | 131° |
| 2026-04-23 11:46 | 60.09537 | -8.89099 | 39479 ft | 445 kts | 131° |
| 2026-04-23 11:46 | 60.05643 | -8.79498 | 39484 ft | 445 kts | 131° |
| 2026-04-23 11:47 | 60.01768 | -8.69985 | 39484 ft | 445 kts | 131° |
| 2026-04-23 11:47 | 59.97854 | -8.60416 | 39487 ft | 445 kts | 131° |
| 2026-04-23 11:48 | 59.93943 | -8.50895 | 39486 ft | 446 kts | 131° |
| 2026-04-23 11:48 | 59.90033 | -8.41414 | 39484 ft | 446 kts | 131° |
| 2026-04-23 11:49 | 59.86113 | -8.31948 | 39492 ft | 446 kts | 133° |
| 2026-04-23 11:49 | 59.82167 | -8.22457 | 39488 ft | 447 kts | 133° |
| 2026-04-23 11:50 | 59.78208 | -8.12975 | 39491 ft | 447 kts | 133° |
| 2026-04-23 11:50 | 59.74234 | -8.03496 | 39493 ft | 448 kts | 133° |
| 2026-04-23 11:51 | 59.70278 | -7.94099 | 39487 ft | 448 kts | 133° |
| 2026-04-23 11:51 | 59.66284 | -7.84649 | 39481 ft | 449 kts | 133° |
| 2026-04-23 11:52 | 59.62286 | -7.75226 | 39496 ft | 450 kts | 133° |
| 2026-04-23 11:52 | 59.58265 | -7.65793 | 39510 ft | 450 kts | 133° |
| 2026-04-23 11:53 | 59.54253 | -7.56414 | 39503 ft | 451 kts | 133° |
| 2026-04-23 11:53 | 59.50212 | -7.47008 | 39500 ft | 452 kts | 133° |
| 2026-04-23 11:54 | 59.46148 | -7.37585 | 39465 ft | 454 kts | 133° |
| 2026-04-23 11:54 | 59.42087 | -7.28210 | 39478 ft | 454 kts | 134° |
| 2026-04-23 11:55 | 59.38003 | -7.18820 | 39465 ft | 454 kts | 134° |
| 2026-04-23 11:55 | 59.33899 | -7.09420 | 39453 ft | 456 kts | 134° |
| 2026-04-23 11:56 | 59.29814 | -7.00104 | 39463 ft | 456 kts | 134° |
| 2026-04-23 11:56 | 59.25689 | -6.90732 | 39487 ft | 457 kts | 134° |
| 2026-04-23 11:57 | 59.21548 | -6.81361 | 39449 ft | 458 kts | 134° |
| 2026-04-23 11:57 | 59.17406 | -6.72028 | 39480 ft | 458 kts | 134° |
| 2026-04-23 11:58 | 59.13243 | -6.62685 | 39510 ft | 458 kts | 134° |
| 2026-04-23 11:58 | 59.09068 | -6.53353 | 39473 ft | 460 kts | 134° |
| 2026-04-23 11:59 | 59.04874 | -6.44016 | 39493 ft | 460 kts | 135° |
| 2026-04-23 11:59 | 59.00691 | -6.34739 | 39471 ft | 460 kts | 136° |
| 2026-04-23 12:00 | 58.96479 | -6.25439 | 39474 ft | 460 kts | 136° |
| 2026-04-23 12:00 | 58.92275 | -6.16193 | 39467 ft | 461 kts | 135° |
| 2026-04-23 12:01 | 58.88027 | -6.06886 | 39496 ft | 461 kts | 135° |
| 2026-04-23 12:01 | 58.83818 | -5.97703 | 39513 ft | 461 kts | 135° |
| 2026-04-23 12:02 | 58.79561 | -5.88450 | 39468 ft | 462 kts | 135° |
| 2026-04-23 12:02 | 58.75310 | -5.79249 | 39463 ft | 462 kts | 136° |
| 2026-04-23 12:03 | 58.71066 | -5.70098 | 39488 ft | 462 kts | 136° |
| 2026-04-23 12:03 | 58.66801 | -5.60940 | 39486 ft | 462 kts | 136° |
| 2026-04-23 12:04 | 58.62515 | -5.51773 | 39467 ft | 462 kts | 135° |
| 2026-04-23 12:04 | 58.58233 | -5.42650 | 39476 ft | 462 kts | 135° |
| 2026-04-23 12:05 | 58.53944 | -5.33548 | 39467 ft | 462 kts | 136° |
| 2026-04-23 12:05 | 58.49647 | -5.24465 | 39461 ft | 461 kts | 136° |
| 2026-04-23 12:06 | 58.45373 | -5.15467 | 39459 ft | 461 kts | 136° |
| 2026-04-23 12:06 | 58.38910 | -5.01925 | 39463 ft | 461 kts | 136° |
| 2026-04-23 12:07 | 58.34616 | -4.92974 | 39450 ft | 461 kts | 136° |
| 2026-04-23 12:07 | 58.30302 | -4.84012 | 39459 ft | 461 kts | 136° |
| 2026-04-23 12:08 | 58.25977 | -4.75065 | 39452 ft | 460 kts | 135° |
| 2026-04-23 12:08 | 58.21665 | -4.66180 | 39443 ft | 460 kts | 135° |
| 2026-04-23 12:09 | 58.17339 | -4.57298 | 39450 ft | 460 kts | 135° |
| 2026-04-23 12:09 | 58.13015 | -4.48456 | 39455 ft | 460 kts | 135° |
| 2026-04-23 12:10 | 58.08681 | -4.39626 | 39450 ft | 460 kts | 135° |
| 2026-04-23 12:10 | 58.04335 | -4.30808 | 39444 ft | 460 kts | 136° |
| 2026-04-23 12:11 | 57.99995 | -4.22036 | 39435 ft | 460 kts | 136° |
| 2026-04-23 12:11 | 57.95641 | -4.13265 | 39449 ft | 460 kts | 136° |
| 2026-04-23 12:12 | 57.91271 | -4.04499 | 39453 ft | 459 kts | 135° |
| 2026-04-23 12:12 | 57.86927 | -3.95816 | 39462 ft | 459 kts | 135° |
| 2026-04-23 12:13 | 57.82571 | -3.87145 | 39485 ft | 460 kts | 135° |
| 2026-04-23 12:13 | 57.78171 | -3.78416 | 39496 ft | 460 kts | 135° |
| 2026-04-23 12:14 | 57.73791 | -3.69762 | 39493 ft | 461 kts | 135° |
| 2026-04-23 12:14 | 57.69384 | -3.61086 | 39515 ft | 462 kts | 135° |
| 2026-04-23 12:15 | 57.64974 | -3.52437 | 39491 ft | 462 kts | 135° |
| 2026-04-23 12:15 | 57.60551 | -3.43797 | 39485 ft | 462 kts | 135° |
| 2026-04-23 12:16 | 57.56141 | -3.35211 | 39479 ft | 462 kts | 135° |
| 2026-04-23 12:16 | 57.51722 | -3.26642 | 39487 ft | 462 kts | 135° |
| 2026-04-23 12:17 | 57.47290 | -3.18079 | 39472 ft | 462 kts | 135° |
| 2026-04-23 12:17 | 57.42846 | -3.09526 | 39459 ft | 462 kts | 135° |
| 2026-04-23 12:18 | 57.38403 | -3.01006 | 39463 ft | 462 kts | 135° |
| 2026-04-23 12:18 | 57.33967 | -2.92532 | 39450 ft | 461 kts | 135° |
| 2026-04-23 12:19 | 57.29507 | -2.84043 | 39452 ft | 460 kts | 135° |
| 2026-04-23 12:19 | 57.25078 | -2.75642 | 39453 ft | 459 kts | 135° |
| 2026-04-23 12:20 | 57.20618 | -2.67216 | 39461 ft | 459 kts | 135° |
| 2026-04-23 12:20 | 57.16198 | -2.58896 | 39465 ft | 459 kts | 135° |
| 2026-04-23 12:21 | 57.11727 | -2.50510 | 39474 ft | 459 kts | 135° |
| 2026-04-23 12:21 | 57.07266 | -2.42172 | 39474 ft | 459 kts | 135° |
| 2026-04-23 12:22 | 57.02822 | -2.33897 | 39476 ft | 458 kts | 136° |
| 2026-04-23 12:22 | 56.98371 | -2.25638 | 39498 ft | 457 kts | 136° |
| 2026-04-23 12:23 | 56.93896 | -2.17366 | 39504 ft | 457 kts | 136° |
| 2026-04-23 12:23 | 56.89452 | -2.09181 | 39498 ft | 457 kts | 136° |
| 2026-04-23 12:24 | 56.84990 | -2.00990 | 39504 ft | 456 kts | 136° |
| 2026-04-23 12:24 | 56.80517 | -1.92809 | 39512 ft | 456 kts | 136° |
| 2026-04-23 12:25 | 56.76020 | -1.84615 | 39510 ft | 456 kts | 136° |
| 2026-04-23 12:25 | 56.71558 | -1.76513 | 39515 ft | 456 kts | 136° |
| 2026-04-23 12:26 | 56.67104 | -1.68453 | 39511 ft | 454 kts | 136° |
| 2026-04-23 12:26 | 56.62635 | -1.60397 | 39512 ft | 454 kts | 136° |
| 2026-04-23 12:27 | 56.58173 | -1.52379 | 39510 ft | 453 kts | 136° |
| 2026-04-23 12:27 | 56.53714 | -1.44397 | 39515 ft | 452 kts | 136° |
| 2026-04-23 12:28 | 56.49257 | -1.36445 | 39509 ft | 451 kts | 136° |
| 2026-04-23 12:28 | 56.44801 | -1.28523 | 39511 ft | 450 kts | 137° |
| 2026-04-23 12:29 | 56.40347 | -1.20633 | 39511 ft | 450 kts | 137° |
| 2026-04-23 12:29 | 56.35903 | -1.12786 | 39513 ft | 449 kts | 137° |
| 2026-04-23 12:30 | 56.31458 | -1.04964 | 39515 ft | 448 kts | 137° |
| 2026-04-23 12:30 | 56.27000 | -0.97149 | 39513 ft | 447 kts | 137° |
| 2026-04-23 12:31 | 56.22560 | -0.89389 | 39505 ft | 447 kts | 137° |
| 2026-04-23 12:31 | 56.18132 | -0.81678 | 39519 ft | 446 kts | 137° |
| 2026-04-23 12:32 | 56.13692 | -0.73970 | 39521 ft | 446 kts | 137° |
| 2026-04-23 12:32 | 56.09253 | -0.66292 | 39519 ft | 445 kts | 137° |
| 2026-04-23 12:33 | 56.04803 | -0.58621 | 39523 ft | 445 kts | 137° |
| 2026-04-23 12:33 | 56.00380 | -0.51020 | 39522 ft | 444 kts | 137° |
| 2026-04-23 12:34 | 55.95947 | -0.43430 | 39522 ft | 444 kts | 137° |
| 2026-04-23 12:34 | 55.91491 | -0.35823 | 39521 ft | 443 kts | 137° |
| 2026-04-23 12:35 | 55.87045 | -0.28262 | 39527 ft | 443 kts | 138° |
| 2026-04-23 12:35 | 55.82602 | -0.20730 | 39529 ft | 442 kts | 138° |
| 2026-04-23 12:36 | 55.78156 | -0.13217 | 39524 ft | 442 kts | 137° |
| 2026-04-23 12:36 | 55.73732 | -0.05765 | 39526 ft | 441 kts | 138° |
| 2026-04-23 12:37 | 55.69278 | 0.01712 | 39524 ft | 441 kts | 137° |
| 2026-04-23 12:37 | 55.64822 | 0.09165 | 39509 ft | 441 kts | 137° |
| 2026-04-23 12:38 | 55.60388 | 0.16561 | 39497 ft | 441 kts | 137° |
| 2026-04-23 12:38 | 55.55957 | 0.23926 | 39503 ft | 440 kts | 138° |
| 2026-04-23 12:39 | 55.51507 | 0.31298 | 39503 ft | 439 kts | 138° |
| 2026-04-23 12:39 | 55.47082 | 0.38606 | 39504 ft | 439 kts | 138° |
| 2026-04-23 12:40 | 55.42636 | 0.45924 | 39511 ft | 438 kts | 138° |
| 2026-04-23 12:40 | 55.38197 | 0.53209 | 39517 ft | 438 kts | 138° |
| 2026-04-23 12:41 | 55.33740 | 0.60499 | 39522 ft | 438 kts | 138° |
| 2026-04-23 12:41 | 55.29311 | 0.67718 | 39516 ft | 437 kts | 139° |
| 2026-04-23 12:42 | 55.24861 | 0.74951 | 39521 ft | 437 kts | 139° |
| 2026-04-23 12:42 | 55.20418 | 0.82147 | 39511 ft | 438 kts | 139° |
| 2026-04-23 12:43 | 55.15968 | 0.89333 | 39505 ft | 437 kts | 139° |
| 2026-04-23 12:43 | 55.11515 | 0.96500 | 39503 ft | 437 kts | 139° |
| 2026-04-23 12:44 | 55.07047 | 1.03669 | 39493 ft | 436 kts | 139° |
| 2026-04-23 12:44 | 55.02610 | 1.10766 | 39502 ft | 436 kts | 139° |
| 2026-04-23 12:45 | 54.98157 | 1.17865 | 39495 ft | 436 kts | 139° |
| 2026-04-23 12:45 | 54.93679 | 1.24984 | 39502 ft | 435 kts | 139° |
| 2026-04-23 12:46 | 54.89230 | 1.32032 | 39501 ft | 435 kts | 139° |
| 2026-04-23 12:46 | 54.84763 | 1.39088 | 39503 ft | 435 kts | 139° |
| 2026-04-23 12:47 | 54.80316 | 1.46090 | 39503 ft | 435 kts | 139° |
| 2026-04-23 12:47 | 54.75836 | 1.53122 | 39496 ft | 435 kts | 139° |
| 2026-04-23 12:48 | 54.71361 | 1.60124 | 39491 ft | 435 kts | 139° |
| 2026-04-23 12:48 | 54.66887 | 1.67104 | 39493 ft | 435 kts | 140° |
| 2026-04-23 12:49 | 54.62422 | 1.74048 | 39486 ft | 435 kts | 140° |
| 2026-04-23 12:49 | 54.57912 | 1.81040 | 39485 ft | 435 kts | 140° |
| 2026-04-23 12:50 | 54.53451 | 1.87934 | 39484 ft | 435 kts | 140° |
| 2026-04-23 12:50 | 54.48956 | 1.94860 | 39489 ft | 435 kts | 140° |
| 2026-04-23 12:51 | 54.44457 | 2.01769 | 39485 ft | 435 kts | 140° |
| 2026-04-23 12:51 | 54.39978 | 2.08630 | 39486 ft | 434 kts | 140° |
| 2026-04-23 12:52 | 54.35480 | 2.15495 | 39492 ft | 434 kts | 140° |
| 2026-04-23 12:52 | 54.30986 | 2.22335 | 39499 ft | 434 kts | 140° |
| 2026-04-23 12:53 | 54.26481 | 2.29172 | 39497 ft | 434 kts | 139° |
| 2026-04-23 12:53 | 54.21974 | 2.35989 | 39492 ft | 434 kts | 139° |
| 2026-04-23 12:54 | 54.17473 | 2.42777 | 39489 ft | 433 kts | 139° |
| 2026-04-23 12:54 | 54.12987 | 2.49522 | 39487 ft | 432 kts | 139° |
| 2026-04-23 12:55 | 54.08488 | 2.56269 | 39483 ft | 432 kts | 139° |
| 2026-04-23 12:55 | 54.04000 | 2.62976 | 39494 ft | 431 kts | 139° |
| 2026-04-23 12:56 | 53.99495 | 2.69689 | 39482 ft | 430 kts | 140° |
| 2026-04-23 12:56 | 53.95009 | 2.76355 | 39474 ft | 430 kts | 140° |
| 2026-04-23 12:57 | 53.90524 | 2.82999 | 39482 ft | 429 kts | 140° |
| 2026-04-23 12:57 | 53.86050 | 2.89606 | 39488 ft | 429 kts | 140° |
| 2026-04-23 12:58 | 53.81536 | 2.96254 | 39489 ft | 429 kts | 140° |
| 2026-04-23 12:58 | 53.77128 | 3.02726 | 39493 ft | 429 kts | 140° |
| 2026-04-23 12:59 | 53.72639 | 3.09298 | 39481 ft | 428 kts | 140° |
| 2026-04-23 12:59 | 53.68149 | 3.15853 | 39484 ft | 428 kts | 140° |
| 2026-04-23 13:00 | 53.63686 | 3.22348 | 39468 ft | 428 kts | 140° |
| 2026-04-23 13:00 | 53.59198 | 3.28863 | 39461 ft | 427 kts | 140° |
| 2026-04-23 13:01 | 53.54684 | 3.35393 | 39459 ft | 427 kts | 140° |
| 2026-04-23 13:01 | 53.50201 | 3.41862 | 39464 ft | 427 kts | 139° |
| 2026-04-23 13:02 | 53.45697 | 3.48341 | 39458 ft | 427 kts | 139° |
| 2026-04-23 13:02 | 53.40977 | 3.54197 | 39463 ft | 426 kts | 151° |
| 2026-04-23 13:03 | 53.35984 | 3.59438 | 39470 ft | 425 kts | 141° |
| 2026-04-23 13:03 | 53.31038 | 3.64769 | 39464 ft | 426 kts | 149° |
| 2026-04-23 13:04 | 53.25874 | 3.69686 | 39464 ft | 426 kts | 150° |
| 2026-04-23 13:04 | 53.20737 | 3.74505 | 39461 ft | 426 kts | 150° |
| 2026-04-23 13:05 | 53.15590 | 3.79316 | 39456 ft | 426 kts | 150° |
| 2026-04-23 13:05 | 53.10413 | 3.84140 | 39445 ft | 426 kts | 150° |
| 2026-04-23 13:06 | 53.02693 | 3.91309 | 39440 ft | 426 kts | 150° |
| 2026-04-23 13:07 | 52.97535 | 3.96082 | 39438 ft | 426 kts | 150° |
| 2026-04-23 13:07 | 52.92380 | 4.00839 | 39450 ft | 426 kts | 150° |
| 2026-04-23 13:08 | 52.87204 | 4.05603 | 39459 ft | 426 kts | 150° |
| 2026-04-23 13:08 | 52.82029 | 4.10353 | 39462 ft | 427 kts | 150° |
| 2026-04-23 13:09 | 52.76854 | 4.15089 | 39455 ft | 427 kts | 150° |
| 2026-04-23 13:09 | 52.71640 | 4.19848 | 39448 ft | 427 kts | 150° |
| 2026-04-23 13:10 | 52.66491 | 4.24536 | 39449 ft | 427 kts | 150° |
| 2026-04-23 13:10 | 52.61263 | 4.29282 | 39450 ft | 427 kts | 150° |
| 2026-04-23 13:11 | 52.56098 | 4.33957 | 39444 ft | 427 kts | 150° |
| 2026-04-23 13:11 | 52.50887 | 4.38662 | 39443 ft | 427 kts | 150° |
| 2026-04-23 13:12 | 52.45705 | 4.43328 | 39438 ft | 427 kts | 150° |
| 2026-04-23 13:12 | 52.40509 | 4.47993 | 39433 ft | 427 kts | 149° |
| 2026-04-23 13:13 | 52.35304 | 4.52655 | 39433 ft | 426 kts | 149° |
| 2026-04-23 13:13 | 52.30199 | 4.57214 | 39429 ft | 426 kts | 149° |
| 2026-04-23 13:14 | 52.24977 | 4.61866 | 39431 ft | 426 kts | 149° |
| 2026-04-23 13:14 | 52.19785 | 4.66478 | 39430 ft | 427 kts | 150° |
| 2026-04-23 13:15 | 52.14560 | 4.71108 | 39421 ft | 427 kts | 150° |
| 2026-04-23 13:15 | 52.09353 | 4.75708 | 39418 ft | 428 kts | 150° |
| 2026-04-23 13:16 | 52.04115 | 4.80324 | 39418 ft | 428 kts | 150° |
| 2026-04-23 13:16 | 51.98887 | 4.84918 | 39410 ft | 428 kts | 150° |
| 2026-04-23 13:17 | 51.93665 | 4.89496 | 39405 ft | 428 kts | 150° |
| 2026-04-23 13:17 | 51.88450 | 4.94054 | 39397 ft | 428 kts | 150° |
| 2026-04-23 13:18 | 51.83208 | 4.98624 | 39400 ft | 428 kts | 150° |
| 2026-04-23 13:18 | 51.77988 | 5.03164 | 39387 ft | 428 kts | 150° |
| 2026-04-23 13:19 | 51.72779 | 5.07681 | 39384 ft | 428 kts | 149° |
| 2026-04-23 13:19 | 51.68898 | 5.11039 | 39386 ft | 428 kts | 149° |
| 2026-04-23 13:20 | 51.63288 | 5.15882 | 39394 ft | 428 kts | 150° |
| 2026-04-23 13:20 | 51.58015 | 5.20420 | 39395 ft | 429 kts | 150° |
| 2026-04-23 13:21 | 51.52775 | 5.24919 | 39398 ft | 428 kts | 149° |
| 2026-04-23 13:21 | 51.47528 | 5.29412 | 39397 ft | 428 kts | 149° |
| 2026-04-23 13:22 | 51.42240 | 5.33928 | 39394 ft | 429 kts | 149° |
| 2026-04-23 13:22 | 51.36961 | 5.38414 | 39390 ft | 428 kts | 147° |
| 2026-04-23 13:23 | 51.31874 | 5.43289 | 39388 ft | 428 kts | 147° |
| 2026-04-23 13:23 | 51.26741 | 5.48057 | 39378 ft | 429 kts | 147° |
| 2026-04-23 13:24 | 51.21558 | 5.52844 | 39365 ft | 429 kts | 147° |
| 2026-04-23 13:24 | 51.16404 | 5.57591 | 39358 ft | 429 kts | 147° |
| 2026-04-23 13:25 | 51.11239 | 5.62334 | 39360 ft | 429 kts | 147° |
| 2026-04-23 13:25 | 51.06090 | 5.67052 | 39367 ft | 429 kts | 148° |
| 2026-04-23 13:26 | 51.00896 | 5.71799 | 39369 ft | 430 kts | 148° |
| 2026-04-23 13:26 | 50.95720 | 5.76515 | 39376 ft | 430 kts | 148° |
| 2026-04-23 13:27 | 50.90519 | 5.81243 | 39362 ft | 431 kts | 148° |
| 2026-04-23 13:27 | 50.85416 | 5.85869 | 39368 ft | 414 kts | 148° |
| 2026-04-23 13:27 | 50.83007 | 5.88048 | 39366 ft | 393 kts | 148° |
| 2026-04-23 13:28 | 50.80613 | 5.90214 | 39374 ft | 392 kts | 148° |
| 2026-04-23 13:28 | 50.75838 | 5.94524 | 39373 ft | 400 kts | 148° |
| 2026-04-23 13:29 | 50.70953 | 5.98921 | 39356 ft | 407 kts | 148° |
| 2026-04-23 13:29 | 50.66034 | 6.03337 | 39346 ft | 410 kts | 148° |
| 2026-04-23 13:30 | 50.61055 | 6.07797 | 39341 ft | 413 kts | 148° |
| 2026-04-23 13:30 | 50.56048 | 6.12271 | 39341 ft | 415 kts | 148° |
| 2026-04-23 13:31 | 50.51002 | 6.16768 | 39339 ft | 416 kts | 148° |
| 2026-04-23 13:31 | 50.45998 | 6.21218 | 39340 ft | 416 kts | 148° |
| 2026-04-23 13:32 | 50.40914 | 6.25727 | 39340 ft | 416 kts | 148° |
| 2026-04-23 13:32 | 50.35861 | 6.30197 | 39335 ft | 416 kts | 147° |
| 2026-04-23 13:33 | 50.30852 | 6.34619 | 39325 ft | 416 kts | 147° |
| 2026-04-23 13:33 | 50.25785 | 6.39079 | 39325 ft | 416 kts | 147° |
| 2026-04-23 13:34 | 50.20745 | 6.43521 | 39318 ft | 416 kts | 146° |
| 2026-04-23 13:34 | 50.16410 | 6.49269 | 39319 ft | 410 kts | 128° |
| 2026-04-23 13:35 | 50.12810 | 6.56169 | 39328 ft | 410 kts | 128° |
| 2026-04-23 13:35 | 50.09137 | 6.62988 | 39335 ft | 410 kts | 128° |
| 2026-04-23 13:36 | 50.05465 | 6.69766 | 39346 ft | 410 kts | 129° |
| 2026-04-23 13:36 | 50.01762 | 6.76582 | 39345 ft | 411 kts | 129° |
| 2026-04-23 13:37 | 49.98072 | 6.83355 | 39341 ft | 411 kts | 129° |
| 2026-04-23 13:37 | 49.94365 | 6.90142 | 39337 ft | 412 kts | 129° |
| 2026-04-23 13:38 | 49.90642 | 6.96939 | 39337 ft | 412 kts | 128° |
| 2026-04-23 13:38 | 49.86923 | 7.03712 | 39343 ft | 413 kts | 128° |
| 2026-04-23 13:39 | 49.83189 | 7.10495 | 39344 ft | 413 kts | 128° |
| 2026-04-23 13:39 | 49.79466 | 7.17240 | 39338 ft | 413 kts | 128° |
| 2026-04-23 13:40 | 49.75743 | 7.23969 | 39339 ft | 414 kts | 128° |
| 2026-04-23 13:40 | 49.71993 | 7.30727 | 39339 ft | 414 kts | 128° |
| 2026-04-23 13:41 | 49.68245 | 7.37466 | 39334 ft | 414 kts | 128° |
| 2026-04-23 13:41 | 49.64489 | 7.44201 | 39329 ft | 414 kts | 128° |
| 2026-04-23 13:42 | 49.60720 | 7.50940 | 39324 ft | 414 kts | 128° |
| 2026-04-23 13:42 | 49.56963 | 7.57642 | 39307 ft | 415 kts | 128° |
| 2026-04-23 13:43 | 49.53203 | 7.64332 | 39300 ft | 415 kts | 128° |
| 2026-04-23 13:43 | 49.49408 | 7.71069 | 39307 ft | 415 kts | 129° |
| 2026-04-23 13:44 | 49.45609 | 7.77794 | 39312 ft | 416 kts | 129° |
| 2026-04-23 13:44 | 49.41820 | 7.84484 | 39305 ft | 416 kts | 129° |
| 2026-04-23 13:45 | 49.37998 | 7.91214 | 39302 ft | 416 kts | 128° |
| 2026-04-23 13:45 | 49.34190 | 7.97902 | 39303 ft | 415 kts | 129° |
| 2026-04-23 13:46 | 49.30449 | 8.04567 | 39374 ft | 413 kts | 127° |
| 2026-04-23 13:46 | 49.26822 | 8.11428 | 39300 ft | 416 kts | 131° |
| 2026-04-23 13:47 | 49.22837 | 8.17813 | 39306 ft | 414 kts | 129° |
| 2026-04-23 13:47 | 49.19030 | 8.24371 | 39300 ft | 414 kts | 128° |
| 2026-04-23 13:48 | 49.15216 | 8.30979 | 39297 ft | 414 kts | 128° |
| 2026-04-23 13:48 | 49.11393 | 8.37594 | 39299 ft | 414 kts | 128° |
| 2026-04-23 13:49 | 49.07599 | 8.44142 | 39305 ft | 414 kts | 128° |
| 2026-04-23 13:49 | 49.03782 | 8.50711 | 39302 ft | 414 kts | 128° |
| 2026-04-23 13:50 | 48.99948 | 8.57269 | 39298 ft | 414 kts | 130° |
| 2026-04-23 13:50 | 48.95549 | 8.62947 | 39303 ft | 417 kts | 137° |
| 2026-04-23 13:51 | 48.91004 | 8.68443 | 39306 ft | 418 kts | 138° |
| 2026-04-23 13:51 | 48.86423 | 8.73964 | 39303 ft | 418 kts | 138° |
| 2026-04-23 13:52 | 48.81855 | 8.79457 | 39297 ft | 419 kts | 138° |
| 2026-04-23 13:52 | 48.77300 | 8.84922 | 39296 ft | 419 kts | 138° |
| 2026-04-23 13:53 | 48.72713 | 8.90411 | 39296 ft | 419 kts | 138° |
| 2026-04-23 13:53 | 48.68132 | 8.95880 | 39297 ft | 420 kts | 138° |
| 2026-04-23 13:54 | 48.63547 | 9.01341 | 39297 ft | 420 kts | 138° |
| 2026-04-23 13:54 | 48.58961 | 9.06790 | 39297 ft | 420 kts | 138° |
| 2026-04-23 13:55 | 48.54369 | 9.12233 | 39295 ft | 420 kts | 137° |
| 2026-04-23 13:55 | 48.49780 | 9.17660 | 39286 ft | 420 kts | 138° |
| 2026-04-23 13:56 | 48.45179 | 9.23088 | 39282 ft | 421 kts | 138° |
| 2026-04-23 13:56 | 48.40594 | 9.28484 | 39279 ft | 421 kts | 138° |
| 2026-04-23 13:57 | 48.35976 | 9.33907 | 39284 ft | 421 kts | 137° |
| 2026-04-23 13:57 | 48.31356 | 9.39319 | 39281 ft | 421 kts | 137° |
| 2026-04-23 13:58 | 48.26678 | 9.44622 | 39280 ft | 424 kts | 143° |
| 2026-04-23 13:58 | 48.21227 | 9.48124 | 39287 ft | 433 kts | 160° |
| 2026-04-23 13:59 | 48.15401 | 9.50561 | 39284 ft | 433 kts | 159° |
| 2026-04-23 13:59 | 48.09626 | 9.53056 | 39282 ft | 433 kts | 159° |
| 2026-04-23 14:00 | 48.04802 | 9.55143 | 39283 ft | 433 kts | 158° |
| 2026-04-23 14:00 | 48.01128 | 9.57408 | 39290 ft | 426 kts | 146° |
| 2026-04-23 14:00 | 47.98678 | 9.59789 | 39291 ft | 421 kts | 138° |
| 2026-04-23 14:01 | 47.93965 | 9.64982 | 39283 ft | 422 kts | 139° |
| 2026-04-23 14:01 | 47.89175 | 9.70159 | 39293 ft | 423 kts | 140° |
| 2026-04-23 14:02 | 47.84398 | 9.75303 | 39294 ft | 423 kts | 140° |
| 2026-04-23 14:02 | 47.79605 | 9.80452 | 39302 ft | 424 kts | 140° |
| 2026-04-23 14:03 | 47.74813 | 9.85587 | 39295 ft | 425 kts | 140° |
| 2026-04-23 14:03 | 47.70011 | 9.90720 | 39302 ft | 425 kts | 140° |
| 2026-04-23 14:04 | 47.65190 | 9.95863 | 39295 ft | 426 kts | 140° |
| 2026-04-23 14:04 | 47.60383 | 10.00979 | 39295 ft | 426 kts | 140° |
| 2026-04-23 14:05 | 47.55531 | 10.06131 | 39290 ft | 427 kts | 140° |
| 2026-04-23 14:05 | 47.50714 | 10.11234 | 39295 ft | 427 kts | 140° |
| 2026-04-23 14:06 | 47.45873 | 10.16351 | 39294 ft | 428 kts | 140° |
| 2026-04-23 14:06 | 47.40881 | 10.21208 | 39309 ft | 430 kts | 144° |
| 2026-04-23 14:07 | 47.35812 | 10.25811 | 39300 ft | 430 kts | 143° |
| 2026-04-23 14:07 | 47.28143 | 10.32757 | 39306 ft | 431 kts | 143° |
| 2026-04-23 14:08 | 47.23008 | 10.37379 | 39296 ft | 431 kts | 144° |
| 2026-04-23 14:08 | 47.17884 | 10.41981 | 39278 ft | 432 kts | 144° |
| 2026-04-23 14:09 | 47.12762 | 10.46570 | 39273 ft | 432 kts | 144° |
| 2026-04-23 14:09 | 47.07622 | 10.51164 | 39281 ft | 432 kts | 144° |
| 2026-04-23 14:10 | 47.02018 | 10.54591 | 39302 ft | 440 kts | 159° |
| 2026-04-23 14:10 | 46.96159 | 10.57201 | 39278 ft | 441 kts | 158° |
| 2026-04-23 14:11 | 46.90312 | 10.59838 | 39282 ft | 441 kts | 158° |
| 2026-04-23 14:11 | 46.84723 | 10.62569 | 39272 ft | 437 kts | 151° |
| 2026-04-23 14:12 | 46.79185 | 10.66345 | 39265 ft | 436 kts | 150° |
| 2026-04-23 14:12 | 46.74614 | 10.69435 | 39255 ft | 437 kts | 150° |